sensor_id;sensor_type;location;lat;lon;timestamp;P1;durP1;ratioP1;P2;durP2;ratioP2
17614;SDS011;8926;49.720;6.576;2022-11-20T00:02:19;2.50;;;2.37;;
17614;SDS011;8926;49.720;6.576;2022-11-20T00:04:44;3.07;;;2.87;;
17614;SDS011;8926;49.720;6.576;2022-11-20T00:07:09;2.50;;;2.40;;
17614;SDS011;8926;49.720;6.576;2022-11-20T00:09:35;2.27;;;2.17;;
17614;SDS011;8926;49.720;6.576;2022-11-20T00:12:00;2.10;;;2.00;;
17614;SDS011;8926;49.720;6.576;2022-11-20T00:14:25;2.30;;;2.20;;
17614;SDS011;8926;49.720;6.576;2022-11-20T00:16:50;2.20;;;2.10;;
17614;SDS011;8926;49.720;6.576;2022-11-20T00:19:16;2.17;;;2.07;;
17614;SDS011;8926;49.720;6.576;2022-11-20T00:21:41;2.40;;;2.30;;
17614;SDS011;8926;49.720;6.576;2022-11-20T00:24:07;3.57;;;2.77;;
17614;SDS011;8926;49.720;6.576;2022-11-20T00:26:34;3.47;;;3.17;;
17614;SDS011;8926;49.720;6.576;2022-11-20T00:29:00;3.30;;;3.10;;
17614;SDS011;8926;49.720;6.576;2022-11-20T00:31:26;3.10;;;2.90;;
17614;SDS011;8926;49.720;6.576;2022-11-20T00:33:52;3.40;;;3.10;;
17614;SDS011;8926;49.720;6.576;2022-11-20T00:36:19;3.07;;;2.87;;
17614;SDS011;8926;49.720;6.576;2022-11-20T00:38:46;2.90;;;2.80;;
17614;SDS011;8926;49.720;6.576;2022-11-20T00:41:13;2.77;;;2.57;;
17614;SDS011;8926;49.720;6.576;2022-11-20T00:43:40;2.83;;;2.67;;
17614;SDS011;8926;49.720;6.576;2022-11-20T00:46:09;2.90;;;2.73;;
17614;SDS011;8926;49.720;6.576;2022-11-20T00:48:38;3.03;;;2.83;;
17614;SDS011;8926;49.720;6.576;2022-11-20T00:51:04;2.90;;;2.70;;
17614;SDS011;8926;49.720;6.576;2022-11-20T00:53:29;3.03;;;2.83;;
17614;SDS011;8926;49.720;6.576;2022-11-20T00:55:59;2.27;;;2.07;;
17614;SDS011;8926;49.720;6.576;2022-11-20T00:58:28;1.60;;;1.50;;
17614;SDS011;8926;49.720;6.576;2022-11-20T01:01:05;1.40;;;1.30;;
17614;SDS011;8926;49.720;6.576;2022-11-20T01:03:36;1.20;;;1.20;;
17614;SDS011;8926;49.720;6.576;2022-11-20T01:06:13;1.40;;;1.30;;
17614;SDS011;8926;49.720;6.576;2022-11-20T01:08:44;1.43;;;1.23;;
17614;SDS011;8926;49.720;6.576;2022-11-20T01:11:14;1.10;;;1.10;;
17614;SDS011;8926;49.720;6.576;2022-11-20T01:13:42;0.97;;;0.97;;
17614;SDS011;8926;49.720;6.576;2022-11-20T01:16:15;0.70;;;0.70;;
17614;SDS011;8926;49.720;6.576;2022-11-20T01:18:46;0.60;;;0.60;;
17614;SDS011;8926;49.720;6.576;2022-11-20T01:21:14;0.80;;;0.80;;
17614;SDS011;8926;49.720;6.576;2022-11-20T01:23:42;1.00;;;1.00;;
17614;SDS011;8926;49.720;6.576;2022-11-20T01:26:09;1.00;;;1.00;;
17614;SDS011;8926;49.720;6.576;2022-11-20T01:28:37;1.30;;;1.20;;
17614;SDS011;8926;49.720;6.576;2022-11-20T01:33:39;1.00;;;1.00;;
17614;SDS011;8926;49.720;6.576;2022-11-20T01:36:06;1.17;;;1.10;;
17614;SDS011;8926;49.720;6.576;2022-11-20T01:38:32;1.13;;;1.13;;
17614;SDS011;8926;49.720;6.576;2022-11-20T01:40:57;1.30;;;1.20;;
17614;SDS011;8926;49.720;6.576;2022-11-20T01:43:23;0.93;;;0.93;;
17614;SDS011;8926;49.720;6.576;2022-11-20T01:48:51;1.23;;;1.20;;
17614;SDS011;8926;49.720;6.576;2022-11-20T01:51:22;1.73;;;1.63;;
17614;SDS011;8926;49.720;6.576;2022-11-20T01:53:56;1.93;;;1.83;;
17614;SDS011;8926;49.720;6.576;2022-11-20T01:56:24;2.10;;;2.00;;
17614;SDS011;8926;49.720;6.576;2022-11-20T01:58:53;2.10;;;2.00;;
17614;SDS011;8926;49.720;6.576;2022-11-20T02:01:21;2.10;;;2.00;;
17614;SDS011;8926;49.720;6.576;2022-11-20T02:03:47;2.07;;;1.97;;
17614;SDS011;8926;49.720;6.576;2022-11-20T02:06:25;2.30;;;2.20;;
17614;SDS011;8926;49.720;6.576;2022-11-20T02:08:53;2.30;;;2.20;;
17614;SDS011;8926;49.720;6.576;2022-11-20T02:11:19;2.10;;;2.00;;
17614;SDS011;8926;49.720;6.576;2022-11-20T02:13:44;2.23;;;2.13;;
17614;SDS011;8926;49.720;6.576;2022-11-20T02:16:12;2.17;;;2.07;;
17614;SDS011;8926;49.720;6.576;2022-11-20T02:18:44;2.30;;;2.20;;
17614;SDS011;8926;49.720;6.576;2022-11-20T02:21:14;2.23;;;2.13;;
17614;SDS011;8926;49.720;6.576;2022-11-20T02:26:28;2.20;;;2.10;;
17614;SDS011;8926;49.720;6.576;2022-11-20T02:28:56;2.10;;;2.00;;
17614;SDS011;8926;49.720;6.576;2022-11-20T02:31:23;2.43;;;2.33;;
17614;SDS011;8926;49.720;6.576;2022-11-20T02:33:53;2.03;;;1.93;;
17614;SDS011;8926;49.720;6.576;2022-11-20T02:36:22;3.20;;;3.00;;
17614;SDS011;8926;49.720;6.576;2022-11-20T02:38:51;2.70;;;2.50;;
17614;SDS011;8926;49.720;6.576;2022-11-20T02:41:16;3.00;;;2.80;;
17614;SDS011;8926;49.720;6.576;2022-11-20T02:43:41;2.70;;;2.50;;
17614;SDS011;8926;49.720;6.576;2022-11-20T02:46:07;2.60;;;2.40;;
17614;SDS011;8926;49.720;6.576;2022-11-20T02:48:32;2.50;;;2.30;;
17614;SDS011;8926;49.720;6.576;2022-11-20T02:50:58;2.13;;;2.03;;
17614;SDS011;8926;49.720;6.576;2022-11-20T02:53:23;2.20;;;2.10;;
17614;SDS011;8926;49.720;6.576;2022-11-20T02:55:48;1.80;;;1.70;;
17614;SDS011;8926;49.720;6.576;2022-11-20T02:58:14;2.10;;;1.90;;
17614;SDS011;8926;49.720;6.576;2022-11-20T03:00:39;1.90;;;1.80;;
17614;SDS011;8926;49.720;6.576;2022-11-20T03:03:04;1.87;;;1.77;;
17614;SDS011;8926;49.720;6.576;2022-11-20T03:05:30;1.67;;;1.57;;
17614;SDS011;8926;49.720;6.576;2022-11-20T03:07:55;1.80;;;1.70;;
17614;SDS011;8926;49.720;6.576;2022-11-20T03:10:20;1.77;;;1.67;;
17614;SDS011;8926;49.720;6.576;2022-11-20T03:12:46;3.27;;;3.07;;
17614;SDS011;8926;49.720;6.576;2022-11-20T03:15:11;3.20;;;3.00;;
17614;SDS011;8926;49.720;6.576;2022-11-20T03:17:36;4.40;;;4.10;;
17614;SDS011;8926;49.720;6.576;2022-11-20T03:20:02;4.93;;;4.63;;
17614;SDS011;8926;49.720;6.576;2022-11-20T03:22:30;4.60;;;4.30;;
17614;SDS011;8926;49.720;6.576;2022-11-20T03:24:56;4.00;;;3.80;;
17614;SDS011;8926;49.720;6.576;2022-11-20T03:27:21;3.70;;;3.50;;
17614;SDS011;8926;49.720;6.576;2022-11-20T03:29:46;3.10;;;2.90;;
17614;SDS011;8926;49.720;6.576;2022-11-20T03:32:12;2.67;;;2.50;;
17614;SDS011;8926;49.720;6.576;2022-11-20T03:37:07;3.20;;;3.00;;
17614;SDS011;8926;49.720;6.576;2022-11-20T03:39:32;3.10;;;2.90;;
17614;SDS011;8926;49.720;6.576;2022-11-20T03:41:57;2.57;;;2.47;;
17614;SDS011;8926;49.720;6.576;2022-11-20T03:44:22;2.40;;;2.30;;
17614;SDS011;8926;49.720;6.576;2022-11-20T03:46:48;2.40;;;2.30;;
17614;SDS011;8926;49.720;6.576;2022-11-20T03:49:13;2.33;;;2.23;;
17614;SDS011;8926;49.720;6.576;2022-11-20T03:51:38;2.63;;;2.53;;
17614;SDS011;8926;49.720;6.576;2022-11-20T03:54:05;2.57;;;2.37;;
17614;SDS011;8926;49.720;6.576;2022-11-20T03:56:33;2.47;;;2.37;;
17614;SDS011;8926;49.720;6.576;2022-11-20T03:59:00;3.70;;;3.40;;
17614;SDS011;8926;49.720;6.576;2022-11-20T04:01:27;4.27;;;3.97;;
17614;SDS011;8926;49.720;6.576;2022-11-20T04:03:55;3.30;;;3.10;;
17614;SDS011;8926;49.720;6.576;2022-11-20T04:06:22;3.60;;;3.40;;
17614;SDS011;8926;49.720;6.576;2022-11-20T04:08:51;2.80;;;2.60;;
17614;SDS011;8926;49.720;6.576;2022-11-20T04:11:32;3.57;;;3.37;;
17614;SDS011;8926;49.720;6.576;2022-11-20T04:14:00;3.70;;;3.50;;
17614;SDS011;8926;49.720;6.576;2022-11-20T04:16:31;4.60;;;4.20;;
17614;SDS011;8926;49.720;6.576;2022-11-20T04:18:59;4.40;;;4.10;;
17614;SDS011;8926;49.720;6.576;2022-11-20T04:21:25;5.30;;;5.00;;
17614;SDS011;8926;49.720;6.576;2022-11-20T04:23:52;5.00;;;4.70;;
17614;SDS011;8926;49.720;6.576;2022-11-20T04:26:19;4.80;;;4.50;;
17614;SDS011;8926;49.720;6.576;2022-11-20T04:28:45;4.83;;;4.53;;
17614;SDS011;8926;49.720;6.576;2022-11-20T04:31:14;4.60;;;4.30;;
17614;SDS011;8926;49.720;6.576;2022-11-20T04:33:42;4.90;;;4.50;;
17614;SDS011;8926;49.720;6.576;2022-11-20T04:36:10;4.70;;;4.40;;
17614;SDS011;8926;49.720;6.576;2022-11-20T04:38:38;4.03;;;3.80;;
17614;SDS011;8926;49.720;6.576;2022-11-20T04:41:05;3.50;;;3.30;;
17614;SDS011;8926;49.720;6.576;2022-11-20T04:43:32;3.33;;;3.13;;
17614;SDS011;8926;49.720;6.576;2022-11-20T04:45:58;2.73;;;2.60;;
17614;SDS011;8926;49.720;6.576;2022-11-20T04:48:28;2.70;;;2.60;;
17614;SDS011;8926;49.720;6.576;2022-11-20T04:50:54;2.37;;;2.27;;
17614;SDS011;8926;49.720;6.576;2022-11-20T04:53:20;3.20;;;3.00;;
17614;SDS011;8926;49.720;6.576;2022-11-20T04:55:47;2.90;;;2.70;;
17614;SDS011;8926;49.720;6.576;2022-11-20T04:58:13;2.97;;;2.77;;
17614;SDS011;8926;49.720;6.576;2022-11-20T05:00:39;2.90;;;2.70;;
17614;SDS011;8926;49.720;6.576;2022-11-20T05:03:04;2.77;;;2.57;;
17614;SDS011;8926;49.720;6.576;2022-11-20T05:05:29;3.47;;;3.17;;
17614;SDS011;8926;49.720;6.576;2022-11-20T05:07:58;2.63;;;2.53;;
17614;SDS011;8926;49.720;6.576;2022-11-20T05:10:24;2.30;;;2.20;;
17614;SDS011;8926;49.720;6.576;2022-11-20T05:12:50;3.17;;;2.97;;
17614;SDS011;8926;49.720;6.576;2022-11-20T05:15:15;3.47;;;3.27;;
17614;SDS011;8926;49.720;6.576;2022-11-20T05:17:40;3.00;;;2.80;;
17614;SDS011;8926;49.720;6.576;2022-11-20T05:20:06;2.70;;;2.60;;
17614;SDS011;8926;49.720;6.576;2022-11-20T05:22:32;2.10;;;2.00;;
17614;SDS011;8926;49.720;6.576;2022-11-20T05:24:57;2.00;;;1.90;;
17614;SDS011;8926;49.720;6.576;2022-11-20T05:27:22;2.30;;;2.20;;
17614;SDS011;8926;49.720;6.576;2022-11-20T05:29:48;1.93;;;1.83;;
17614;SDS011;8926;49.720;6.576;2022-11-20T05:32:13;2.00;;;1.90;;
17614;SDS011;8926;49.720;6.576;2022-11-20T05:34:38;1.90;;;1.80;;
17614;SDS011;8926;49.720;6.576;2022-11-20T05:37:04;1.73;;;1.63;;
17614;SDS011;8926;49.720;6.576;2022-11-20T05:39:29;2.03;;;1.93;;
17614;SDS011;8926;49.720;6.576;2022-11-20T05:41:54;1.93;;;1.83;;
17614;SDS011;8926;49.720;6.576;2022-11-20T05:44:39;1.80;;;1.70;;
17614;SDS011;8926;49.720;6.576;2022-11-20T05:47:04;2.10;;;2.00;;
17614;SDS011;8926;49.720;6.576;2022-11-20T05:49:30;1.90;;;1.80;;
17614;SDS011;8926;49.720;6.576;2022-11-20T05:51:56;1.90;;;1.80;;
17614;SDS011;8926;49.720;6.576;2022-11-20T05:54:21;3.03;;;2.83;;
17614;SDS011;8926;49.720;6.576;2022-11-20T05:56:46;2.60;;;2.50;;
17614;SDS011;8926;49.720;6.576;2022-11-20T05:59:12;3.13;;;2.93;;
17614;SDS011;8926;49.720;6.576;2022-11-20T06:01:37;3.30;;;3.10;;
17614;SDS011;8926;49.720;6.576;2022-11-20T06:04:02;3.37;;;3.17;;
17614;SDS011;8926;49.720;6.576;2022-11-20T06:06:28;3.80;;;3.60;;
17614;SDS011;8926;49.720;6.576;2022-11-20T06:08:53;3.23;;;3.03;;
17614;SDS011;8926;49.720;6.576;2022-11-20T06:11:20;2.80;;;2.70;;
17614;SDS011;8926;49.720;6.576;2022-11-20T06:13:45;2.73;;;2.63;;
17614;SDS011;8926;49.720;6.576;2022-11-20T06:16:13;2.53;;;2.33;;
17614;SDS011;8926;49.720;6.576;2022-11-20T06:18:41;2.43;;;2.33;;
17614;SDS011;8926;49.720;6.576;2022-11-20T06:23:39;2.23;;;2.13;;
17614;SDS011;8926;49.720;6.576;2022-11-20T06:26:06;2.00;;;1.90;;
17614;SDS011;8926;49.720;6.576;2022-11-20T06:28:36;2.30;;;2.20;;
17614;SDS011;8926;49.720;6.576;2022-11-20T06:31:02;3.47;;;3.27;;
17614;SDS011;8926;49.720;6.576;2022-11-20T06:33:28;2.50;;;2.40;;
17614;SDS011;8926;49.720;6.576;2022-11-20T06:35:57;2.93;;;2.77;;
17614;SDS011;8926;49.720;6.576;2022-11-20T06:38:27;2.70;;;2.60;;
17614;SDS011;8926;49.720;6.576;2022-11-20T06:40:53;2.80;;;2.60;;
17614;SDS011;8926;49.720;6.576;2022-11-20T06:43:18;3.10;;;2.90;;
17614;SDS011;8926;49.720;6.576;2022-11-20T06:45:44;2.87;;;2.67;;
17614;SDS011;8926;49.720;6.576;2022-11-20T06:48:09;2.77;;;2.57;;
17614;SDS011;8926;49.720;6.576;2022-11-20T06:50:38;4.40;;;4.10;;
17614;SDS011;8926;49.720;6.576;2022-11-20T06:53:03;5.60;;;5.20;;
17614;SDS011;8926;49.720;6.576;2022-11-20T06:55:30;5.30;;;4.93;;
17614;SDS011;8926;49.720;6.576;2022-11-20T06:57:56;3.90;;;3.60;;
17614;SDS011;8926;49.720;6.576;2022-11-20T07:00:21;4.27;;;3.97;;
17614;SDS011;8926;49.720;6.576;2022-11-20T07:02:46;3.60;;;3.40;;
17614;SDS011;8926;49.720;6.576;2022-11-20T07:05:12;5.80;;;5.40;;
17614;SDS011;8926;49.720;6.576;2022-11-20T07:07:37;4.90;;;4.60;;
17614;SDS011;8926;49.720;6.576;2022-11-20T07:10:03;4.37;;;4.07;;
17614;SDS011;8926;49.720;6.576;2022-11-20T07:12:29;3.77;;;3.57;;
17614;SDS011;8926;49.720;6.576;2022-11-20T07:14:54;3.50;;;3.30;;
17614;SDS011;8926;49.720;6.576;2022-11-20T07:17:19;4.83;;;4.50;;
17614;SDS011;8926;49.720;6.576;2022-11-20T07:19:45;4.87;;;4.57;;
17614;SDS011;8926;49.720;6.576;2022-11-20T07:22:10;4.93;;;4.57;;
17614;SDS011;8926;49.720;6.576;2022-11-20T07:24:36;3.67;;;3.47;;
17614;SDS011;8926;49.720;6.576;2022-11-20T07:27:01;3.70;;;3.50;;
17614;SDS011;8926;49.720;6.576;2022-11-20T07:29:26;6.97;;;6.47;;
17614;SDS011;8926;49.720;6.576;2022-11-20T07:31:52;6.37;;;5.87;;
17614;SDS011;8926;49.720;6.576;2022-11-20T07:34:17;6.07;;;5.67;;
17614;SDS011;8926;49.720;6.576;2022-11-20T07:36:42;5.47;;;5.13;;
17614;SDS011;8926;49.720;6.576;2022-11-20T07:39:07;5.80;;;5.40;;
17614;SDS011;8926;49.720;6.576;2022-11-20T07:41:33;5.30;;;4.90;;
17614;SDS011;8926;49.720;6.576;2022-11-20T07:43:58;5.63;;;5.23;;
17614;SDS011;8926;49.720;6.576;2022-11-20T07:46:23;4.80;;;4.40;;
17614;SDS011;8926;49.720;6.576;2022-11-20T07:48:49;4.00;;;3.80;;
17614;SDS011;8926;49.720;6.576;2022-11-20T07:51:14;5.50;;;5.10;;
17614;SDS011;8926;49.720;6.576;2022-11-20T07:53:39;6.20;;;5.80;;
17614;SDS011;8926;49.720;6.576;2022-11-20T07:56:05;5.43;;;5.03;;
17614;SDS011;8926;49.720;6.576;2022-11-20T07:58:32;5.70;;;5.30;;
17614;SDS011;8926;49.720;6.576;2022-11-20T08:01:03;5.87;;;5.47;;
17614;SDS011;8926;49.720;6.576;2022-11-20T08:03:29;4.73;;;4.43;;
17614;SDS011;8926;49.720;6.576;2022-11-20T08:05:56;6.27;;;5.87;;
17614;SDS011;8926;49.720;6.576;2022-11-20T08:08:23;6.27;;;5.87;;
17614;SDS011;8926;49.720;6.576;2022-11-20T08:10:49;5.37;;;5.07;;
17614;SDS011;8926;49.720;6.576;2022-11-20T08:13:14;7.37;;;6.87;;
17614;SDS011;8926;49.720;6.576;2022-11-20T08:15:58;7.47;;;6.87;;
17614;SDS011;8926;49.720;6.576;2022-11-20T08:18:23;6.37;;;5.97;;
17614;SDS011;8926;49.720;6.576;2022-11-20T08:20:49;5.77;;;5.37;;
17614;SDS011;8926;49.720;6.576;2022-11-20T08:23:14;5.53;;;5.13;;
17614;SDS011;8926;49.720;6.576;2022-11-20T08:25:39;7.80;;;7.20;;
17614;SDS011;8926;49.720;6.576;2022-11-20T08:28:06;8.10;;;7.30;;
17614;SDS011;8926;49.720;6.576;2022-11-20T08:30:33;7.33;;;6.73;;
17614;SDS011;8926;49.720;6.576;2022-11-20T08:33:03;7.13;;;6.53;;
17614;SDS011;8926;49.720;6.576;2022-11-20T08:35:33;5.47;;;5.10;;
17614;SDS011;8926;49.720;6.576;2022-11-20T08:38:03;6.30;;;5.90;;
17614;SDS011;8926;49.720;6.576;2022-11-20T08:40:29;6.17;;;5.73;;
17614;SDS011;8926;49.720;6.576;2022-11-20T08:42:55;5.80;;;5.40;;
17614;SDS011;8926;49.720;6.576;2022-11-20T08:45:21;6.00;;;5.50;;
17614;SDS011;8926;49.720;6.576;2022-11-20T08:47:46;7.60;;;7.00;;
17614;SDS011;8926;49.720;6.576;2022-11-20T08:50:12;6.10;;;5.60;;
17614;SDS011;8926;49.720;6.576;2022-11-20T08:52:40;4.97;;;4.67;;
17614;SDS011;8926;49.720;6.576;2022-11-20T08:55:07;3.77;;;3.57;;
17614;SDS011;8926;49.720;6.576;2022-11-20T08:57:33;3.77;;;3.57;;
17614;SDS011;8926;49.720;6.576;2022-11-20T08:59:59;4.00;;;3.70;;
17614;SDS011;8926;49.720;6.576;2022-11-20T09:02:25;6.07;;;5.23;;
17614;SDS011;8926;49.720;6.576;2022-11-20T09:04:51;4.67;;;4.37;;
17614;SDS011;8926;49.720;6.576;2022-11-20T09:07:16;4.83;;;4.53;;
17614;SDS011;8926;49.720;6.576;2022-11-20T09:09:41;3.70;;;3.50;;
17614;SDS011;8926;49.720;6.576;2022-11-20T09:12:06;4.47;;;4.07;;
17614;SDS011;8926;49.720;6.576;2022-11-20T09:14:32;3.50;;;3.30;;
17614;SDS011;8926;49.720;6.576;2022-11-20T09:16:58;4.40;;;4.00;;
17614;SDS011;8926;49.720;6.576;2022-11-20T09:19:24;3.87;;;3.63;;
17614;SDS011;8926;49.720;6.576;2022-11-20T09:21:49;3.93;;;3.63;;
17614;SDS011;8926;49.720;6.576;2022-11-20T09:24:15;3.53;;;3.33;;
17614;SDS011;8926;49.720;6.576;2022-11-20T09:26:41;5.47;;;5.03;;
17614;SDS011;8926;49.720;6.576;2022-11-20T09:29:06;4.50;;;4.20;;
17614;SDS011;8926;49.720;6.576;2022-11-20T09:31:31;3.93;;;3.63;;
17614;SDS011;8926;49.720;6.576;2022-11-20T09:33:57;3.27;;;3.07;;
17614;SDS011;8926;49.720;6.576;2022-11-20T09:36:22;4.80;;;4.40;;
17614;SDS011;8926;49.720;6.576;2022-11-20T09:38:48;4.87;;;4.47;;
17614;SDS011;8926;49.720;6.576;2022-11-20T09:46:49;5.30;;;4.43;;
17614;SDS011;8926;49.720;6.576;2022-11-20T09:51:59;4.67;;;3.80;;
17614;SDS011;8926;49.720;6.576;2022-11-20T09:54:35;4.17;;;3.77;;
17614;SDS011;8926;49.720;6.576;2022-11-20T09:57:11;3.77;;;3.43;;
17614;SDS011;8926;49.720;6.576;2022-11-20T09:59:41;4.23;;;3.00;;
17614;SDS011;8926;49.720;6.576;2022-11-20T10:04:53;3.20;;;3.00;;
17614;SDS011;8926;49.720;6.576;2022-11-20T10:07:22;3.57;;;3.10;;
17614;SDS011;8926;49.720;6.576;2022-11-20T10:09:53;2.87;;;2.63;;
17614;SDS011;8926;49.720;6.576;2022-11-20T10:15:11;2.97;;;2.77;;
17614;SDS011;8926;49.720;6.576;2022-11-20T10:23:51;2.57;;;2.23;;
17614;SDS011;8926;49.720;6.576;2022-11-20T10:29:13;2.47;;;2.27;;
17614;SDS011;8926;49.720;6.576;2022-11-20T10:31:42;2.83;;;2.63;;
17614;SDS011;8926;49.720;6.576;2022-11-20T10:34:24;2.77;;;2.50;;
17614;SDS011;8926;49.720;6.576;2022-11-20T10:37:00;3.10;;;2.80;;
17614;SDS011;8926;49.720;6.576;2022-11-20T10:42:11;2.83;;;2.60;;
17614;SDS011;8926;49.720;6.576;2022-11-20T10:44:41;4.37;;;2.83;;
17614;SDS011;8926;49.720;6.576;2022-11-20T10:47:27;4.53;;;3.33;;
17614;SDS011;8926;49.720;6.576;2022-11-20T10:49:55;3.83;;;3.13;;
17614;SDS011;8926;49.720;6.576;2022-11-20T10:52:36;3.40;;;3.10;;
17614;SDS011;8926;49.720;6.576;2022-11-20T10:55:23;4.30;;;3.87;;
17614;SDS011;8926;49.720;6.576;2022-11-20T11:00:37;5.13;;;3.30;;
17614;SDS011;8926;49.720;6.576;2022-11-20T11:03:02;3.27;;;2.50;;
17614;SDS011;8926;49.720;6.576;2022-11-20T11:07:59;6.17;;;4.30;;
17614;SDS011;8926;49.720;6.576;2022-11-20T11:12:59;7.13;;;4.43;;
17614;SDS011;8926;49.720;6.576;2022-11-20T11:15:26;6.77;;;4.27;;
17614;SDS011;8926;49.720;6.576;2022-11-20T11:18:02;6.17;;;4.80;;
17614;SDS011;8926;49.720;6.576;2022-11-20T11:20:27;8.40;;;7.60;;
17614;SDS011;8926;49.720;6.576;2022-11-20T11:22:53;5.60;;;4.47;;
17614;SDS011;8926;49.720;6.576;2022-11-20T11:25:30;5.50;;;3.20;;
17614;SDS011;8926;49.720;6.576;2022-11-20T11:28:04;4.80;;;3.83;;
17614;SDS011;8926;49.720;6.576;2022-11-20T11:30:42;5.87;;;2.80;;
17614;SDS011;8926;49.720;6.576;2022-11-20T11:33:10;4.17;;;2.70;;
17614;SDS011;8926;49.720;6.576;2022-11-20T11:35:44;4.27;;;2.40;;
17614;SDS011;8926;49.720;6.576;2022-11-20T11:38:12;3.60;;;2.00;;
17614;SDS011;8926;49.720;6.576;2022-11-20T11:40:42;3.83;;;2.10;;
17614;SDS011;8926;49.720;6.576;2022-11-20T11:43:16;3.40;;;2.47;;
17614;SDS011;8926;49.720;6.576;2022-11-20T11:46:03;4.70;;;3.43;;
17614;SDS011;8926;49.720;6.576;2022-11-20T11:48:39;4.43;;;2.50;;
17614;SDS011;8926;49.720;6.576;2022-11-20T11:51:07;2.90;;;2.53;;
17614;SDS011;8926;49.720;6.576;2022-11-20T11:53:33;7.63;;;2.90;;
17614;SDS011;8926;49.720;6.576;2022-11-20T11:56:08;4.73;;;2.70;;
17614;SDS011;8926;49.720;6.576;2022-11-20T12:03:50;2.87;;;2.17;;
17614;SDS011;8926;49.720;6.576;2022-11-20T12:06:24;3.10;;;2.07;;
17614;SDS011;8926;49.720;6.576;2022-11-20T12:08:53;3.77;;;2.13;;
17614;SDS011;8926;49.720;6.576;2022-11-20T12:16:39;3.50;;;1.90;;
17614;SDS011;8926;49.720;6.576;2022-11-20T12:19:10;2.77;;;1.90;;
17614;SDS011;8926;49.720;6.576;2022-11-20T12:21:40;4.33;;;2.23;;
17614;SDS011;8926;49.720;6.576;2022-11-20T12:27:42;1.80;;;1.70;;
17614;SDS011;8926;49.720;6.576;2022-11-20T12:30:17;2.50;;;1.93;;
17614;SDS011;8926;49.720;6.576;2022-11-20T12:43:31;1.67;;;1.40;;
17614;SDS011;8926;49.720;6.576;2022-11-20T12:46:29;1.70;;;1.40;;
17614;SDS011;8926;49.720;6.576;2022-11-20T12:54:34;2.13;;;1.77;;
17614;SDS011;8926;49.720;6.576;2022-11-20T12:57:15;3.43;;;1.50;;
17614;SDS011;8926;49.720;6.576;2022-11-20T13:02:37;2.90;;;1.77;;
17614;SDS011;8926;49.720;6.576;2022-11-20T13:08:24;3.50;;;2.10;;
17614;SDS011;8926;49.720;6.576;2022-11-20T13:13:35;2.47;;;1.50;;
17614;SDS011;8926;49.720;6.576;2022-11-20T13:19:01;2.97;;;1.50;;
17614;SDS011;8926;49.720;6.576;2022-11-20T13:22:01;1.83;;;1.23;;
17614;SDS011;8926;49.720;6.576;2022-11-20T13:27:17;3.87;;;1.60;;
17614;SDS011;8926;49.720;6.576;2022-11-20T13:29:46;3.30;;;1.67;;
17614;SDS011;8926;49.720;6.576;2022-11-20T13:32:24;2.20;;;1.83;;
17614;SDS011;8926;49.720;6.576;2022-11-20T13:34:53;2.93;;;2.63;;
17614;SDS011;8926;49.720;6.576;2022-11-20T13:40:04;2.37;;;1.90;;
17614;SDS011;8926;49.720;6.576;2022-11-20T13:42:31;1.90;;;1.40;;
17614;SDS011;8926;49.720;6.576;2022-11-20T13:45:08;2.50;;;1.90;;
17614;SDS011;8926;49.720;6.576;2022-11-20T13:47:36;1.93;;;1.70;;
17614;SDS011;8926;49.720;6.576;2022-11-20T13:50:03;2.43;;;1.37;;
17614;SDS011;8926;49.720;6.576;2022-11-20T13:55:26;1.60;;;1.50;;
17614;SDS011;8926;49.720;6.576;2022-11-20T13:58:10;1.40;;;1.30;;
17614;SDS011;8926;49.720;6.576;2022-11-20T14:01:00;3.20;;;1.83;;
17614;SDS011;8926;49.720;6.576;2022-11-20T14:03:38;2.73;;;1.80;;
17614;SDS011;8926;49.720;6.576;2022-11-20T14:06:05;1.53;;;1.40;;
17614;SDS011;8926;49.720;6.576;2022-11-20T14:08:43;3.63;;;1.40;;
17614;SDS011;8926;49.720;6.576;2022-11-20T14:11:13;2.27;;;1.40;;
17614;SDS011;8926;49.720;6.576;2022-11-20T14:16:21;4.03;;;3.60;;
17614;SDS011;8926;49.720;6.576;2022-11-20T14:18:48;3.07;;;2.00;;
17614;SDS011;8926;49.720;6.576;2022-11-20T14:21:26;2.17;;;1.73;;
17614;SDS011;8926;49.720;6.576;2022-11-20T14:24:04;2.13;;;1.90;;
17614;SDS011;8926;49.720;6.576;2022-11-20T14:26:30;1.97;;;1.57;;
17614;SDS011;8926;49.720;6.576;2022-11-20T14:28:56;2.43;;;1.37;;
17614;SDS011;8926;49.720;6.576;2022-11-20T14:31:23;2.80;;;1.50;;
17614;SDS011;8926;49.720;6.576;2022-11-20T14:33:52;1.70;;;1.47;;
17614;SDS011;8926;49.720;6.576;2022-11-20T14:36:20;3.30;;;2.77;;
17614;SDS011;8926;49.720;6.576;2022-11-20T14:38:49;3.80;;;2.10;;
17614;SDS011;8926;49.720;6.576;2022-11-20T14:41:22;1.80;;;1.70;;
17614;SDS011;8926;49.720;6.576;2022-11-20T14:43:56;3.87;;;1.80;;
17614;SDS011;8926;49.720;6.576;2022-11-20T14:46:22;3.17;;;1.87;;
17614;SDS011;8926;49.720;6.576;2022-11-20T14:48:52;3.47;;;2.03;;
17614;SDS011;8926;49.720;6.576;2022-11-20T14:51:39;4.20;;;2.90;;
17614;SDS011;8926;49.720;6.576;2022-11-20T14:54:17;4.93;;;2.53;;
17614;SDS011;8926;49.720;6.576;2022-11-20T14:56:53;4.00;;;3.07;;
17614;SDS011;8926;49.720;6.576;2022-11-20T14:59:31;3.50;;;3.20;;
17614;SDS011;8926;49.720;6.576;2022-11-20T15:02:02;5.87;;;4.73;;
17614;SDS011;8926;49.720;6.576;2022-11-20T15:04:34;4.53;;;3.53;;
17614;SDS011;8926;49.720;6.576;2022-11-20T15:07:10;3.70;;;2.90;;
17614;SDS011;8926;49.720;6.576;2022-11-20T15:09:36;3.10;;;2.23;;
17614;SDS011;8926;49.720;6.576;2022-11-20T15:12:01;2.93;;;2.00;;
17614;SDS011;8926;49.720;6.576;2022-11-20T15:14:28;2.97;;;1.80;;
17614;SDS011;8926;49.720;6.576;2022-11-20T15:16:57;2.10;;;1.90;;
17614;SDS011;8926;49.720;6.576;2022-11-20T15:19:49;1.80;;;1.30;;
17614;SDS011;8926;49.720;6.576;2022-11-20T15:22:16;3.60;;;1.60;;
17614;SDS011;8926;49.720;6.576;2022-11-20T15:24:41;2.93;;;1.90;;
17614;SDS011;8926;49.720;6.576;2022-11-20T15:27:07;2.43;;;1.70;;
17614;SDS011;8926;49.720;6.576;2022-11-20T15:29:35;1.87;;;1.70;;
17614;SDS011;8926;49.720;6.576;2022-11-20T15:32:00;4.60;;;2.10;;
17614;SDS011;8926;49.720;6.576;2022-11-20T15:34:27;3.13;;;1.73;;
17614;SDS011;8926;49.720;6.576;2022-11-20T15:36:52;3.37;;;1.73;;
17614;SDS011;8926;49.720;6.576;2022-11-20T15:39:19;4.73;;;1.70;;
17614;SDS011;8926;49.720;6.576;2022-11-20T15:41:45;2.40;;;2.03;;
17614;SDS011;8926;49.720;6.576;2022-11-20T15:44:10;1.60;;;1.27;;
17614;SDS011;8926;49.720;6.576;2022-11-20T15:46:37;2.63;;;1.40;;
17614;SDS011;8926;49.720;6.576;2022-11-20T15:49:11;4.50;;;1.80;;
17614;SDS011;8926;49.720;6.576;2022-11-20T15:51:39;2.53;;;2.30;;
17614;SDS011;8926;49.720;6.576;2022-11-20T15:54:11;1.80;;;1.70;;
17614;SDS011;8926;49.720;6.576;2022-11-20T15:56:43;2.97;;;2.00;;
17614;SDS011;8926;49.720;6.576;2022-11-20T15:59:08;3.47;;;2.20;;
17614;SDS011;8926;49.720;6.576;2022-11-20T16:01:33;3.27;;;1.70;;
17614;SDS011;8926;49.720;6.576;2022-11-20T16:04:01;4.30;;;2.20;;
17614;SDS011;8926;49.720;6.576;2022-11-20T16:06:27;2.00;;;1.90;;
17614;SDS011;8926;49.720;6.576;2022-11-20T16:08:52;1.90;;;1.53;;
17614;SDS011;8926;49.720;6.576;2022-11-20T16:11:20;1.63;;;1.40;;
17614;SDS011;8926;49.720;6.576;2022-11-20T16:13:46;2.10;;;1.80;;
17614;SDS011;8926;49.720;6.576;2022-11-20T16:16:31;3.13;;;1.70;;
17614;SDS011;8926;49.720;6.576;2022-11-20T16:18:58;1.63;;;1.40;;
17614;SDS011;8926;49.720;6.576;2022-11-20T16:21:25;3.27;;;2.13;;
17614;SDS011;8926;49.720;6.576;2022-11-20T16:23:59;2.77;;;1.93;;
17614;SDS011;8926;49.720;6.576;2022-11-20T16:26:30;2.70;;;1.93;;
17614;SDS011;8926;49.720;6.576;2022-11-20T16:28:56;1.90;;;1.80;;
17614;SDS011;8926;49.720;6.576;2022-11-20T16:31:23;2.83;;;2.00;;
17614;SDS011;8926;49.720;6.576;2022-11-20T16:33:49;3.43;;;2.80;;
17614;SDS011;8926;49.720;6.576;2022-11-20T16:36:16;3.90;;;2.53;;
17614;SDS011;8926;49.720;6.576;2022-11-20T16:38:41;1.90;;;1.70;;
17614;SDS011;8926;49.720;6.576;2022-11-20T16:41:07;1.83;;;1.50;;
17614;SDS011;8926;49.720;6.576;2022-11-20T16:43:42;2.20;;;1.47;;
17614;SDS011;8926;49.720;6.576;2022-11-20T16:46:15;2.03;;;1.60;;
17614;SDS011;8926;49.720;6.576;2022-11-20T16:48:41;1.70;;;1.60;;